Conover, Iowa
Current Conditions -  °F | °C
As of 9:35 AM on Sunday 21 Dec 2014 (Local Time) from KDEH Reporting Station
Haze Haze  
Wind Chill: 25°   Ceiling: 400
Heat Index: 36°   Visibility: 1.7mi
Dew Point: 36°   Wind: 17mph
Humidity: 100%   Direction: 180°S
Pressure: 29.95"   Gusts: 23mph
Location:  43.2097°N, 91.9613°W
Report Text: KDEH 211535Z AUTO 18015G20KT 1 3/4SM BR OVC004 02/02 A2995 RMK AO2
Loading
Personal Weather Stations






























Interactive Weather Map New forecast layout! Learn more

10-Day Weather Forecast

Advertisements
Track Severe Weather on mobile